createdAt,value
2019-02-20T00:02:19.374Z,7.12
2019-02-20T00:04:51.265Z,7.11
2019-02-20T00:07:25.799Z,7.03
2019-02-20T00:09:57.954Z,7.07
2019-02-20T00:12:29.923Z,7.18
2019-02-20T00:15:02.004Z,7.14
2019-02-20T00:17:34.744Z,7.08
2019-02-20T00:20:07.178Z,6.99
2019-02-20T00:22:40.427Z,6.97
2019-02-20T00:25:13.024Z,7.06
2019-02-20T00:27:45.401Z,7.06
2019-02-20T00:30:17.857Z,6.95
2019-02-20T00:32:49.708Z,6.95
2019-02-20T00:35:21.525Z,6.93
2019-02-20T00:37:53.299Z,6.87
2019-02-20T00:40:25.157Z,6.77
2019-02-20T00:42:57.042Z,6.79
2019-02-20T00:45:42.313Z,6.76
2019-02-20T00:48:38.679Z,6.81
2019-02-20T00:51:38.516Z,6.67
2019-02-20T00:54:10.287Z,6.64
2019-02-20T00:56:42.332Z,6.63
2019-02-20T00:59:14.137Z,6.56
2019-02-20T01:01:46.181Z,6.48
2019-02-20T01:04:17.983Z,6.51
2019-02-20T01:06:49.864Z,6.46
2019-02-20T01:09:21.753Z,6.52
2019-02-20T01:11:53.800Z,6.48
2019-02-20T01:14:25.554Z,6.34
2019-02-20T01:16:57.625Z,6.42
2019-02-20T01:19:29.417Z,6.52
2019-02-20T01:22:01.350Z,6.49
2019-02-20T01:24:33.163Z,6.49
2019-02-20T01:27:04.974Z,6.33
2019-02-20T01:29:36.999Z,6.42
2019-02-20T01:32:08.793Z,6.41
2019-02-20T01:34:41.571Z,6.43
2019-02-20T01:37:13.371Z,6.42
2019-02-20T01:39:45.128Z,6.39
2019-02-20T01:42:16.994Z,6.49
2019-02-20T01:44:50.331Z,6.33
2019-02-20T01:47:22.540Z,6.33
2019-02-20T01:49:54.423Z,6.41
2019-02-20T01:52:26.518Z,6.36
2019-02-20T01:54:58.325Z,6.37
2019-02-20T01:57:30.125Z,6.26
2019-02-20T02:00:02.127Z,6.40
2019-02-20T02:02:34.510Z,6.27
2019-02-20T02:05:14.743Z,6.27
2019-02-20T02:07:41.003Z,6.36
2019-02-20T02:10:12.882Z,6.25
2019-02-20T02:12:45.234Z,6.28
2019-02-20T02:15:20.506Z,6.18
2019-02-20T02:17:51.222Z,6.09
2019-02-20T02:20:23.009Z,6.27
2019-02-20T02:22:55.032Z,6.16
2019-02-20T02:25:26.831Z,6.17
2019-02-20T02:27:58.857Z,6.20
2019-02-20T02:30:30.873Z,6.17
2019-02-20T02:33:02.784Z,6.19
2019-02-20T02:35:34.563Z,6.14
2019-02-20T02:38:06.600Z,6.06
2019-02-20T02:40:38.368Z,6.08
2019-02-20T02:43:10.159Z,5.98
2019-02-20T02:45:41.995Z,5.90
2019-02-20T02:48:13.958Z,5.90
2019-02-20T02:50:45.738Z,5.76
2019-02-20T02:53:17.592Z,5.84
2019-02-20T02:55:49.380Z,5.89
2019-02-20T02:58:21.164Z,5.95
2019-02-20T03:00:54.311Z,5.94
2019-02-20T03:03:27.985Z,5.94
2019-02-20T03:05:59.748Z,5.84
2019-02-20T03:08:31.730Z,5.88
2019-02-20T03:11:03.500Z,5.83
2019-02-20T03:13:35.494Z,5.91
2019-02-20T03:16:07.605Z,5.99
2019-02-20T03:18:39.527Z,5.92
2019-02-20T03:21:11.327Z,5.93
2019-02-20T03:23:43.288Z,5.80
2019-02-20T03:26:15.125Z,5.80
2019-02-20T03:28:47.120Z,5.83
2019-02-20T03:31:19.353Z,5.90
2019-02-20T03:34:11.679Z,5.91
2019-02-20T03:36:43.596Z,5.89
2019-02-20T03:39:15.564Z,5.82
2019-02-20T03:41:48.959Z,5.84
2019-02-20T03:44:21.119Z,5.85
2019-02-20T03:46:53.270Z,5.90
2019-02-20T03:49:25.063Z,5.84
2019-02-20T03:51:56.864Z,5.94
2019-02-20T03:54:28.633Z,5.86
2019-02-20T03:57:00.568Z,5.89
2019-02-20T03:59:32.654Z,5.76
2019-02-20T04:02:04.596Z,5.78
2019-02-20T04:04:36.394Z,5.76
2019-02-20T04:07:08.379Z,5.84
2019-02-20T04:09:40.182Z,5.79
2019-02-20T04:12:12.045Z,5.83
2019-02-20T04:14:43.857Z,5.84
2019-02-20T04:17:15.900Z,5.78
2019-02-20T04:19:47.996Z,5.78
2019-02-20T04:22:19.803Z,5.85
2019-02-20T04:24:51.705Z,5.87
2019-02-20T04:27:23.540Z,5.89
2019-02-20T04:29:55.713Z,5.70
2019-02-20T04:32:27.726Z,5.71
2019-02-20T04:35:00.440Z,5.78
2019-02-20T04:37:32.278Z,5.84
2019-02-20T04:40:04.383Z,5.79
2019-02-20T04:42:36.125Z,5.83
2019-02-20T04:45:08.553Z,5.74
2019-02-20T04:47:40.787Z,5.70
2019-02-20T04:50:12.694Z,5.73
2019-02-20T04:52:44.440Z,5.69
2019-02-20T04:55:16.219Z,5.70
2019-02-20T04:57:48.006Z,5.68
2019-02-20T05:00:20.127Z,5.66
2019-02-20T05:02:52.190Z,5.56
2019-02-20T05:05:24.135Z,5.73
2019-02-20T05:07:56.085Z,5.71
2019-02-20T05:10:27.896Z,5.72
2019-02-20T05:12:59.665Z,5.58
2019-02-20T05:15:31.566Z,5.67
2019-02-20T16:55:25.085Z,6.07
2019-02-20T16:57:57.274Z,6.09
2019-02-20T17:00:29.574Z,6.23
2019-02-20T17:03:01.451Z,6.32
2019-02-20T17:05:33.394Z,6.39
2019-02-20T17:08:05.644Z,6.47
2019-02-20T17:10:37.458Z,6.54
2019-02-20T17:13:09.408Z,6.60
2019-02-20T17:15:41.376Z,6.59
2019-02-20T17:18:13.255Z,6.62
2019-02-20T17:20:45.162Z,6.69
2019-02-20T17:23:17.050Z,6.77
2019-02-20T17:25:48.963Z,6.79
2019-02-20T17:28:20.803Z,6.81
2019-02-20T17:30:53.125Z,6.77
2019-02-20T17:33:24.947Z,6.87
2019-02-20T17:35:56.906Z,6.82
2019-02-20T17:38:28.767Z,6.78
2019-02-20T17:41:00.723Z,6.75
2019-02-20T17:43:32.724Z,6.77
2019-02-20T17:46:04.857Z,6.58
2019-02-20T17:48:37.054Z,6.62
2019-02-20T17:51:09.094Z,6.69
2019-02-20T17:53:40.886Z,6.62
2019-02-20T17:56:13.038Z,6.62
2019-02-20T17:58:46.013Z,6.71
2019-02-20T18:01:19.132Z,6.70
2019-02-20T18:03:51.126Z,6.58
2019-02-20T18:06:22.924Z,6.58
2019-02-20T18:08:54.773Z,6.69
2019-02-20T18:11:26.716Z,6.62
2019-02-20T18:13:58.560Z,6.60
2019-02-20T18:16:30.686Z,6.65
2019-02-20T18:19:02.500Z,6.73
2019-02-20T18:21:34.400Z,6.57
2019-02-20T18:24:07.484Z,6.60
2019-02-20T18:26:39.262Z,6.55
2019-02-20T18:29:11.098Z,6.61
2019-02-20T18:31:43.184Z,6.49
2019-02-20T18:34:15.064Z,6.56
2019-02-20T18:36:46.862Z,6.47
2019-02-20T18:39:18.700Z,6.47
2019-02-20T18:41:50.496Z,6.58
2019-02-20T18:44:22.461Z,6.52
2019-02-20T18:46:56.582Z,6.39
2019-02-20T18:49:28.106Z,6.51
2019-02-20T18:51:59.984Z,6.50
2019-02-20T18:54:31.964Z,6.44
2019-02-20T18:57:04.080Z,6.51
2019-02-20T18:59:36.605Z,6.59
2019-02-20T19:02:09.507Z,6.55
2019-02-20T19:04:42.263Z,6.63
2019-02-20T19:07:15.839Z,6.50
2019-02-20T19:09:51.018Z,6.58
2019-02-20T19:13:40.843Z,6.57
2019-02-20T19:17:17.210Z,6.60
2019-02-20T19:20:51.185Z,6.55
2019-02-20T19:24:22.581Z,6.52
2019-02-20T19:27:09.723Z,6.46
2019-02-20T19:30:25.813Z,6.48
2019-02-20T19:33:58.052Z,6.46
2019-02-20T19:37:05.309Z,6.55
2019-02-20T19:40:08.971Z,6.52
2019-02-20T19:43:48.821Z,6.49
2019-02-20T19:47:22.998Z,6.50
2019-02-20T19:50:37.532Z,6.56
2019-02-20T19:54:06.308Z,6.60
2019-02-20T19:57:27.875Z,6.49
2019-02-20T20:00:55.333Z,6.50
2019-02-20T20:04:07.172Z,6.58
2019-02-20T20:07:27.105Z,6.55
2019-02-20T20:10:21.050Z,6.47
2019-02-20T20:13:52.639Z,6.41
2019-02-20T20:17:10.172Z,6.52
2019-02-20T20:20:50.429Z,6.51
2019-02-20T20:24:23.889Z,6.39
2019-02-20T20:27:44.822Z,6.49
2019-02-20T20:31:13.709Z,6.44
2019-02-20T20:34:50.002Z,6.44
2019-02-20T20:38:13.933Z,6.43
2019-02-20T20:41:55.889Z,6.50
2019-02-20T20:45:33.606Z,6.46
2019-02-20T20:48:58.064Z,6.47
2019-02-20T20:52:16.132Z,6.45
2019-02-20T20:55:54.764Z,6.42
2019-02-20T20:59:18.222Z,6.49
2019-02-20T21:02:11.794Z,6.45
2019-02-20T21:05:41.514Z,6.43
2019-02-20T21:08:41.735Z,6.41
2019-02-20T21:12:18.799Z,6.48
2019-02-20T21:15:32.653Z,6.51
2019-02-20T21:19:21.870Z,6.44
2019-02-20T21:22:47.446Z,6.42
2019-02-20T21:26:14.363Z,6.40
2019-02-20T21:29:55.853Z,6.41
2019-02-20T21:33:41.701Z,6.38
2019-02-20T21:36:39.808Z,6.41
2019-02-20T21:39:55.664Z,6.39
2019-02-20T21:43:24.693Z,6.37
2019-02-20T21:46:48.296Z,6.44
2019-02-20T21:50:09.990Z,6.44
2019-02-20T21:54:02.673Z,6.44
2019-02-20T21:57:48.381Z,6.41
2019-02-20T22:00:40.091Z,6.37
2019-02-20T22:04:15.250Z,6.32
2019-02-20T22:08:00.979Z,6.36
2019-02-20T22:11:39.234Z,6.33
2019-02-20T22:14:59.003Z,6.37
2019-02-20T22:18:24.957Z,6.35
2019-02-20T22:21:51.164Z,6.32
2019-02-20T22:25:06.867Z,6.31
2019-02-20T22:28:51.322Z,6.25
2019-02-20T22:31:51.299Z,6.26
2019-02-20T22:35:05.918Z,6.24
2019-02-20T22:38:29.353Z,6.18
2019-02-20T22:41:51.101Z,6.14
2019-02-20T22:45:20.399Z,6.03
2019-02-20T22:48:39.842Z,6.11
2019-02-20T22:52:23.332Z,6.12
2019-02-20T22:55:59.291Z,6.16
2019-02-20T22:59:18.009Z,6.07
2019-02-20T23:02:51.511Z,6.05
2019-02-20T23:06:25.893Z,5.97
2019-02-20T23:09:59.876Z,6.02
2019-02-20T23:13:30.164Z,5.93
2019-02-20T23:16:01.940Z,5.96
2019-02-20T23:18:33.784Z,5.99
2019-02-20T23:21:05.608Z,5.99
2019-02-20T23:23:37.350Z,5.98
2019-02-20T23:26:09.370Z,6.02
2019-02-20T23:28:41.177Z,6.07
2019-02-20T23:31:12.995Z,6.06
2019-02-20T23:33:44.792Z,6.06
2019-02-20T23:36:16.608Z,5.98
2019-02-20T23:38:48.392Z,6.04
2019-02-20T23:41:20.164Z,6.04
2019-02-20T23:43:51.919Z,6.04
2019-02-20T23:46:23.684Z,6.01
2019-02-20T23:48:55.509Z,5.96
2019-02-20T23:51:27.302Z,5.92
2019-02-20T23:53:59.144Z,5.85
2019-02-20T23:56:32.081Z,5.83
2019-02-20T23:59:03.946Z,5.77
